sensor_id;sensor_type;location;lat;lon;timestamp;temperature;humidity
41533;DHT22;27262;-35.248;149.138;2023-08-01T00:01:51;17.80;63.10
41533;DHT22;27262;-35.248;149.138;2023-08-01T00:04:21;17.80;63.20
41533;DHT22;27262;-35.248;149.138;2023-08-01T00:06:52;17.80;63.00
41533;DHT22;27262;-35.248;149.138;2023-08-01T00:09:22;17.80;63.10
41533;DHT22;27262;-35.248;149.138;2023-08-01T00:11:52;17.90;63.10
41533;DHT22;27262;-35.248;149.138;2023-08-01T00:14:24;17.90;63.00
41533;DHT22;27262;-35.248;149.138;2023-08-01T00:16:55;17.90;63.00
41533;DHT22;27262;-35.248;149.138;2023-08-01T00:19:25;17.90;63.00
41533;DHT22;27262;-35.248;149.138;2023-08-01T00:21:56;18.00;62.90
41533;DHT22;27262;-35.248;149.138;2023-08-01T00:24:26;18.00;63.00
41533;DHT22;27262;-35.248;149.138;2023-08-01T00:26:57;18.00;62.90
41533;DHT22;27262;-35.248;149.138;2023-08-01T00:29:27;18.00;62.80
41533;DHT22;27262;-35.248;149.138;2023-08-01T00:31:57;18.00;62.80
41533;DHT22;27262;-35.248;149.138;2023-08-01T00:34:28;18.10;62.80
41533;DHT22;27262;-35.248;149.138;2023-08-01T00:36:58;18.10;62.80
41533;DHT22;27262;-35.248;149.138;2023-08-01T00:39:28;18.10;62.80
41533;DHT22;27262;-35.248;149.138;2023-08-01T00:41:59;18.20;62.80
41533;DHT22;27262;-35.248;149.138;2023-08-01T00:44:32;18.20;62.70
41533;DHT22;27262;-35.248;149.138;2023-08-01T00:47:03;18.20;62.60
41533;DHT22;27262;-35.248;149.138;2023-08-01T00:49:34;18.20;62.60
41533;DHT22;27262;-35.248;149.138;2023-08-01T00:52:05;18.30;62.60
41533;DHT22;27262;-35.248;149.138;2023-08-01T00:54:36;18.30;62.60
41533;DHT22;27262;-35.248;149.138;2023-08-01T00:57:07;18.30;62.50
41533;DHT22;27262;-35.248;149.138;2023-08-01T00:59:38;18.30;62.50
41533;DHT22;27262;-35.248;149.138;2023-08-01T01:02:08;18.30;62.40
41533;DHT22;27262;-35.248;149.138;2023-08-01T01:04:39;18.30;62.40
41533;DHT22;27262;-35.248;149.138;2023-08-01T01:07:10;18.40;62.50
41533;DHT22;27262;-35.248;149.138;2023-08-01T01:09:41;18.40;62.40
41533;DHT22;27262;-35.248;149.138;2023-08-01T01:12:11;18.40;62.40
41533;DHT22;27262;-35.248;149.138;2023-08-01T01:14:42;18.40;62.40
41533;DHT22;27262;-35.248;149.138;2023-08-01T01:17:13;18.40;62.40
41533;DHT22;27262;-35.248;149.138;2023-08-01T01:19:43;18.50;62.30
41533;DHT22;27262;-35.248;149.138;2023-08-01T01:22:14;18.50;62.30
41533;DHT22;27262;-35.248;149.138;2023-08-01T01:24:46;18.50;62.30
41533;DHT22;27262;-35.248;149.138;2023-08-01T01:27:17;18.50;62.20
41533;DHT22;27262;-35.248;149.138;2023-08-01T01:29:49;18.50;62.20
41533;DHT22;27262;-35.248;149.138;2023-08-01T01:32:21;18.50;62.10
41533;DHT22;27262;-35.248;149.138;2023-08-01T01:34:52;18.60;62.10
41533;DHT22;27262;-35.248;149.138;2023-08-01T01:37:22;18.60;62.10
41533;DHT22;27262;-35.248;149.138;2023-08-01T01:39:53;18.60;62.10
41533;DHT22;27262;-35.248;149.138;2023-08-01T01:42:24;18.60;62.10
41533;DHT22;27262;-35.248;149.138;2023-08-01T01:44:54;18.60;62.00
41533;DHT22;27262;-35.248;149.138;2023-08-01T01:47:25;18.70;62.00
41533;DHT22;27262;-35.248;149.138;2023-08-01T01:49:55;18.70;62.00
41533;DHT22;27262;-35.248;149.138;2023-08-01T01:52:26;18.70;61.90
41533;DHT22;27262;-35.248;149.138;2023-08-01T01:54:56;18.70;61.90
41533;DHT22;27262;-35.248;149.138;2023-08-01T01:57:26;18.70;61.90
41533;DHT22;27262;-35.248;149.138;2023-08-01T01:59:57;18.80;61.90
41533;DHT22;27262;-35.248;149.138;2023-08-01T02:02:27;18.80;61.80
41533;DHT22;27262;-35.248;149.138;2023-08-01T02:04:57;18.80;61.80
41533;DHT22;27262;-35.248;149.138;2023-08-01T02:07:28;18.80;61.80
41533;DHT22;27262;-35.248;149.138;2023-08-01T02:09:58;18.80;61.80
41533;DHT22;27262;-35.248;149.138;2023-08-01T02:12:29;18.90;61.70
41533;DHT22;27262;-35.248;149.138;2023-08-01T02:15:04;18.80;61.70
41533;DHT22;27262;-35.248;149.138;2023-08-01T02:17:35;18.90;61.70
41533;DHT22;27262;-35.248;149.138;2023-08-01T02:20:06;18.90;61.70
41533;DHT22;27262;-35.248;149.138;2023-08-01T02:22:36;18.90;61.70
41533;DHT22;27262;-35.248;149.138;2023-08-01T02:25:07;18.90;61.60
41533;DHT22;27262;-35.248;149.138;2023-08-01T02:27:37;18.90;61.50
41533;DHT22;27262;-35.248;149.138;2023-08-01T02:30:08;18.90;61.50
41533;DHT22;27262;-35.248;149.138;2023-08-01T02:32:38;18.90;61.50
41533;DHT22;27262;-35.248;149.138;2023-08-01T02:35:08;18.90;61.50
41533;DHT22;27262;-35.248;149.138;2023-08-01T02:37:39;18.90;61.50
41533;DHT22;27262;-35.248;149.138;2023-08-01T02:40:10;18.90;61.50
41533;DHT22;27262;-35.248;149.138;2023-08-01T02:42:40;18.90;61.50
41533;DHT22;27262;-35.248;149.138;2023-08-01T02:45:11;19.00;61.50
41533;DHT22;27262;-35.248;149.138;2023-08-01T02:47:41;19.00;61.50
41533;DHT22;27262;-35.248;149.138;2023-08-01T02:50:11;19.00;61.40
41533;DHT22;27262;-35.248;149.138;2023-08-01T02:52:42;19.00;61.30
41533;DHT22;27262;-35.248;149.138;2023-08-01T02:55:12;19.00;61.30
41533;DHT22;27262;-35.248;149.138;2023-08-01T02:57:42;19.00;61.30
41533;DHT22;27262;-35.248;149.138;2023-08-01T03:00:13;19.00;61.10
41533;DHT22;27262;-35.248;149.138;2023-08-01T03:02:43;19.10;61.20
41533;DHT22;27262;-35.248;149.138;2023-08-01T03:05:13;19.10;61.20
41533;DHT22;27262;-35.248;149.138;2023-08-01T03:07:44;19.10;61.10
41533;DHT22;27262;-35.248;149.138;2023-08-01T03:10:14;19.10;61.00
41533;DHT22;27262;-35.248;149.138;2023-08-01T03:13:03;19.10;61.00
41533;DHT22;27262;-35.248;149.138;2023-08-01T03:15:33;19.10;60.90
41533;DHT22;27262;-35.248;149.138;2023-08-01T03:18:04;19.10;61.00
41533;DHT22;27262;-35.248;149.138;2023-08-01T03:20:34;19.10;60.90
41533;DHT22;27262;-35.248;149.138;2023-08-01T03:23:04;19.10;60.80
41533;DHT22;27262;-35.248;149.138;2023-08-01T03:25:35;19.10;60.60
41533;DHT22;27262;-35.248;149.138;2023-08-01T03:28:05;19.10;60.60
41533;DHT22;27262;-35.248;149.138;2023-08-01T03:30:36;19.10;60.40
41533;DHT22;27262;-35.248;149.138;2023-08-01T03:33:06;19.10;60.30
41533;DHT22;27262;-35.248;149.138;2023-08-01T03:35:36;19.10;60.30
41533;DHT22;27262;-35.248;149.138;2023-08-01T03:38:07;19.10;60.20
41533;DHT22;27262;-35.248;149.138;2023-08-01T03:40:37;19.10;60.10
41533;DHT22;27262;-35.248;149.138;2023-08-01T03:43:08;19.10;60.00
41533;DHT22;27262;-35.248;149.138;2023-08-01T03:45:40;19.10;59.80
41533;DHT22;27262;-35.248;149.138;2023-08-01T03:48:10;19.10;59.80
41533;DHT22;27262;-35.248;149.138;2023-08-01T03:50:41;19.10;59.80
41533;DHT22;27262;-35.248;149.138;2023-08-01T03:53:11;19.10;59.70
41533;DHT22;27262;-35.248;149.138;2023-08-01T03:55:43;19.10;59.70
41533;DHT22;27262;-35.248;149.138;2023-08-01T03:58:14;19.10;59.70
41533;DHT22;27262;-35.248;149.138;2023-08-01T04:00:44;19.10;60.30
41533;DHT22;27262;-35.248;149.138;2023-08-01T04:03:15;19.10;59.70
41533;DHT22;27262;-35.248;149.138;2023-08-01T04:05:45;19.10;59.70
41533;DHT22;27262;-35.248;149.138;2023-08-01T04:08:19;19.10;59.70
41533;DHT22;27262;-35.248;149.138;2023-08-01T04:10:57;19.10;59.70
41533;DHT22;27262;-35.248;149.138;2023-08-01T04:13:27;19.10;59.70
41533;DHT22;27262;-35.248;149.138;2023-08-01T04:15:58;19.10;59.80
41533;DHT22;27262;-35.248;149.138;2023-08-01T04:18:28;19.10;59.90
41533;DHT22;27262;-35.248;149.138;2023-08-01T04:20:59;19.10;59.80
41533;DHT22;27262;-35.248;149.138;2023-08-01T04:23:30;19.10;59.80
41533;DHT22;27262;-35.248;149.138;2023-08-01T04:26:00;19.10;59.90
41533;DHT22;27262;-35.248;149.138;2023-08-01T04:28:30;19.10;59.80
41533;DHT22;27262;-35.248;149.138;2023-08-01T04:31:01;19.10;59.90
41533;DHT22;27262;-35.248;149.138;2023-08-01T04:33:31;19.10;59.80
41533;DHT22;27262;-35.248;149.138;2023-08-01T04:36:02;19.10;59.80
41533;DHT22;27262;-35.248;149.138;2023-08-01T04:38:33;19.20;59.90
41533;DHT22;27262;-35.248;149.138;2023-08-01T04:41:03;19.10;59.80
41533;DHT22;27262;-35.248;149.138;2023-08-01T04:43:34;19.20;59.90
41533;DHT22;27262;-35.248;149.138;2023-08-01T04:46:04;19.20;59.90
41533;DHT22;27262;-35.248;149.138;2023-08-01T04:48:35;19.10;59.80
41533;DHT22;27262;-35.248;149.138;2023-08-01T04:51:05;19.10;59.80
41533;DHT22;27262;-35.248;149.138;2023-08-01T04:53:36;19.20;60.00
41533;DHT22;27262;-35.248;149.138;2023-08-01T04:56:06;19.10;59.80
41533;DHT22;27262;-35.248;149.138;2023-08-01T04:58:36;19.20;60.00
41533;DHT22;27262;-35.248;149.138;2023-08-01T05:01:07;19.20;60.00
41533;DHT22;27262;-35.248;149.138;2023-08-01T05:03:37;19.20;60.00
41533;DHT22;27262;-35.248;149.138;2023-08-01T05:06:08;19.20;60.00
41533;DHT22;27262;-35.248;149.138;2023-08-01T05:08:38;19.20;60.00
41533;DHT22;27262;-35.248;149.138;2023-08-01T05:11:08;19.20;60.10
41533;DHT22;27262;-35.248;149.138;2023-08-01T05:13:38;19.20;60.10
41533;DHT22;27262;-35.248;149.138;2023-08-01T05:16:09;19.20;60.00
41533;DHT22;27262;-35.248;149.138;2023-08-01T05:18:39;19.20;60.00
41533;DHT22;27262;-35.248;149.138;2023-08-01T05:21:09;19.20;60.10
41533;DHT22;27262;-35.248;149.138;2023-08-01T05:23:40;19.20;60.10
41533;DHT22;27262;-35.248;149.138;2023-08-01T05:26:10;19.20;60.20
41533;DHT22;27262;-35.248;149.138;2023-08-01T05:28:40;19.20;60.20
41533;DHT22;27262;-35.248;149.138;2023-08-01T05:31:11;19.30;60.50
41533;DHT22;27262;-35.248;149.138;2023-08-01T05:33:41;19.30;60.60
41533;DHT22;27262;-35.248;149.138;2023-08-01T05:36:11;19.30;60.40
41533;DHT22;27262;-35.248;149.138;2023-08-01T05:38:42;19.30;60.40
41533;DHT22;27262;-35.248;149.138;2023-08-01T05:41:12;19.30;60.60
41533;DHT22;27262;-35.248;149.138;2023-08-01T05:43:42;19.30;60.70
41533;DHT22;27262;-35.248;149.138;2023-08-01T05:46:12;19.30;60.50
41533;DHT22;27262;-35.248;149.138;2023-08-01T05:48:43;19.30;60.50
41533;DHT22;27262;-35.248;149.138;2023-08-01T05:51:13;19.30;60.90
41533;DHT22;27262;-35.248;149.138;2023-08-01T05:53:43;19.40;61.00
41533;DHT22;27262;-35.248;149.138;2023-08-01T05:56:14;19.40;60.70
41533;DHT22;27262;-35.248;149.138;2023-08-01T05:58:44;19.40;60.60
41533;DHT22;27262;-35.248;149.138;2023-08-01T06:01:15;19.40;61.00
41533;DHT22;27262;-35.248;149.138;2023-08-01T06:03:46;19.40;60.90
41533;DHT22;27262;-35.248;149.138;2023-08-01T06:06:17;19.40;60.70
41533;DHT22;27262;-35.248;149.138;2023-08-01T06:08:47;19.40;61.00
41533;DHT22;27262;-35.248;149.138;2023-08-01T06:11:17;19.40;61.10
41533;DHT22;27262;-35.248;149.138;2023-08-01T06:13:48;19.40;61.00
41533;DHT22;27262;-35.248;149.138;2023-08-01T06:16:19;19.40;60.90
41533;DHT22;27262;-35.248;149.138;2023-08-01T06:18:51;19.40;61.00
41533;DHT22;27262;-35.248;149.138;2023-08-01T06:21:22;19.50;61.20
41533;DHT22;27262;-35.248;149.138;2023-08-01T06:23:52;19.50;61.10
41533;DHT22;27262;-35.248;149.138;2023-08-01T06:26:22;19.50;61.10
41533;DHT22;27262;-35.248;149.138;2023-08-01T06:28:53;19.50;60.90
41533;DHT22;27262;-35.248;149.138;2023-08-01T06:31:24;19.50;60.70
41533;DHT22;27262;-35.248;149.138;2023-08-01T06:33:54;19.50;60.90
41533;DHT22;27262;-35.248;149.138;2023-08-01T06:36:24;19.50;61.30
41533;DHT22;27262;-35.248;149.138;2023-08-01T06:38:55;19.50;61.00
41533;DHT22;27262;-35.248;149.138;2023-08-01T06:41:25;19.50;61.10
41533;DHT22;27262;-35.248;149.138;2023-08-01T06:43:56;19.50;60.90
41533;DHT22;27262;-35.248;149.138;2023-08-01T06:46:26;19.50;61.20
41533;DHT22;27262;-35.248;149.138;2023-08-01T06:48:56;19.50;61.10
41533;DHT22;27262;-35.248;149.138;2023-08-01T06:51:27;19.50;61.20
41533;DHT22;27262;-35.248;149.138;2023-08-01T06:53:57;19.50;61.00
41533;DHT22;27262;-35.248;149.138;2023-08-01T06:56:28;19.50;61.30
41533;DHT22;27262;-35.248;149.138;2023-08-01T06:58:58;19.50;61.10
41533;DHT22;27262;-35.248;149.138;2023-08-01T07:01:29;19.50;61.00
41533;DHT22;27262;-35.248;149.138;2023-08-01T07:04:00;19.50;61.00
41533;DHT22;27262;-35.248;149.138;2023-08-01T07:06:30;19.50;61.20
41533;DHT22;27262;-35.248;149.138;2023-08-01T07:09:00;19.60;61.30
41533;DHT22;27262;-35.248;149.138;2023-08-01T07:11:31;19.60;61.10
41533;DHT22;27262;-35.248;149.138;2023-08-01T07:14:01;19.50;60.90
41533;DHT22;27262;-35.248;149.138;2023-08-01T07:16:32;19.50;61.80
41533;DHT22;27262;-35.248;149.138;2023-08-01T07:19:02;19.50;61.00
41533;DHT22;27262;-35.248;149.138;2023-08-01T07:21:33;19.50;61.20
41533;DHT22;27262;-35.248;149.138;2023-08-01T07:24:04;19.50;61.00
41533;DHT22;27262;-35.248;149.138;2023-08-01T07:26:34;19.50;61.30
41533;DHT22;27262;-35.248;149.138;2023-08-01T07:29:05;19.50;61.30
41533;DHT22;27262;-35.248;149.138;2023-08-01T07:31:37;19.50;61.30
41533;DHT22;27262;-35.248;149.138;2023-08-01T07:34:08;19.50;61.20
41533;DHT22;27262;-35.248;149.138;2023-08-01T07:36:38;19.60;61.20
41533;DHT22;27262;-35.248;149.138;2023-08-01T07:39:09;19.50;61.00
41533;DHT22;27262;-35.248;149.138;2023-08-01T07:41:39;19.50;61.10
41533;DHT22;27262;-35.248;149.138;2023-08-01T07:44:10;19.50;61.00
41533;DHT22;27262;-35.248;149.138;2023-08-01T07:46:40;19.50;61.00
41533;DHT22;27262;-35.248;149.138;2023-08-01T07:49:10;19.50;61.10
41533;DHT22;27262;-35.248;149.138;2023-08-01T07:51:41;19.50;61.10
41533;DHT22;27262;-35.248;149.138;2023-08-01T07:54:11;19.50;61.20
41533;DHT22;27262;-35.248;149.138;2023-08-01T07:56:41;19.50;61.10
41533;DHT22;27262;-35.248;149.138;2023-08-01T07:59:13;19.50;61.10
41533;DHT22;27262;-35.248;149.138;2023-08-01T08:01:43;19.50;61.20
41533;DHT22;27262;-35.248;149.138;2023-08-01T08:04:14;19.40;61.10
41533;DHT22;27262;-35.248;149.138;2023-08-01T08:06:45;19.40;61.20
41533;DHT22;27262;-35.248;149.138;2023-08-01T08:09:15;19.50;61.20
41533;DHT22;27262;-35.248;149.138;2023-08-01T08:11:46;19.40;61.20
41533;DHT22;27262;-35.248;149.138;2023-08-01T08:14:16;19.50;61.20
41533;DHT22;27262;-35.248;149.138;2023-08-01T08:16:46;19.50;61.20
41533;DHT22;27262;-35.248;149.138;2023-08-01T08:19:17;19.50;61.30
41533;DHT22;27262;-35.248;149.138;2023-08-01T08:21:48;19.50;61.10
41533;DHT22;27262;-35.248;149.138;2023-08-01T08:24:18;19.50;61.10
41533;DHT22;27262;-35.248;149.138;2023-08-01T08:26:48;19.40;61.10
41533;DHT22;27262;-35.248;149.138;2023-08-01T08:29:19;19.40;61.10
41533;DHT22;27262;-35.248;149.138;2023-08-01T08:31:49;19.50;61.10
41533;DHT22;27262;-35.248;149.138;2023-08-01T08:34:20;19.40;61.20
41533;DHT22;27262;-35.248;149.138;2023-08-01T08:36:50;19.40;61.40
41533;DHT22;27262;-35.248;149.138;2023-08-01T08:39:20;19.40;61.40
41533;DHT22;27262;-35.248;149.138;2023-08-01T08:41:52;19.40;61.40
41533;DHT22;27262;-35.248;149.138;2023-08-01T08:44:22;19.40;61.40
41533;DHT22;27262;-35.248;149.138;2023-08-01T08:47:03;19.40;62.30
41533;DHT22;27262;-35.248;149.138;2023-08-01T08:49:37;19.40;61.80
41533;DHT22;27262;-35.248;149.138;2023-08-01T08:52:10;19.40;61.70
41533;DHT22;27262;-35.248;149.138;2023-08-01T08:54:41;19.40;61.80
41533;DHT22;27262;-35.248;149.138;2023-08-01T08:57:11;19.40;61.60
41533;DHT22;27262;-35.248;149.138;2023-08-01T08:59:43;19.40;61.80
41533;DHT22;27262;-35.248;149.138;2023-08-01T09:02:15;19.40;61.70
41533;DHT22;27262;-35.248;149.138;2023-08-01T09:04:48;19.40;61.90
41533;DHT22;27262;-35.248;149.138;2023-08-01T09:07:20;19.40;61.70
41533;DHT22;27262;-35.248;149.138;2023-08-01T09:09:54;19.40;62.00
41533;DHT22;27262;-35.248;149.138;2023-08-01T09:12:24;19.40;61.80
41533;DHT22;27262;-35.248;149.138;2023-08-01T09:14:57;19.40;61.80
41533;DHT22;27262;-35.248;149.138;2023-08-01T09:17:27;19.40;61.70
41533;DHT22;27262;-35.248;149.138;2023-08-01T09:20:05;19.40;61.90
41533;DHT22;27262;-35.248;149.138;2023-08-01T09:22:45;19.40;61.60
41533;DHT22;27262;-35.248;149.138;2023-08-01T09:25:16;19.40;61.50
41533;DHT22;27262;-35.248;149.138;2023-08-01T09:27:46;19.40;61.70
41533;DHT22;27262;-35.248;149.138;2023-08-01T09:30:17;19.40;61.70
41533;DHT22;27262;-35.248;149.138;2023-08-01T09:32:56;19.40;61.90
41533;DHT22;27262;-35.248;149.138;2023-08-01T09:35:27;19.40;62.00
41533;DHT22;27262;-35.248;149.138;2023-08-01T09:38:00;19.40;62.00
41533;DHT22;27262;-35.248;149.138;2023-08-01T09:40:38;19.40;61.70
41533;DHT22;27262;-35.248;149.138;2023-08-01T09:43:09;19.40;61.70
41533;DHT22;27262;-35.248;149.138;2023-08-01T09:45:53;19.30;61.70
41533;DHT22;27262;-35.248;149.138;2023-08-01T09:48:28;19.30;61.50
41533;DHT22;27262;-35.248;149.138;2023-08-01T09:51:12;19.30;61.70
41533;DHT22;27262;-35.248;149.138;2023-08-01T09:53:54;19.30;61.70
41533;DHT22;27262;-35.248;149.138;2023-08-01T09:56:26;19.30;61.70
41533;DHT22;27262;-35.248;149.138;2023-08-01T09:58:57;19.30;61.80
41533;DHT22;27262;-35.248;149.138;2023-08-01T10:01:32;19.30;61.80
41533;DHT22;27262;-35.248;149.138;2023-08-01T10:04:03;19.30;61.80
41533;DHT22;27262;-35.248;149.138;2023-08-01T10:06:37;19.20;61.80
41533;DHT22;27262;-35.248;149.138;2023-08-01T10:09:10;19.20;61.80
41533;DHT22;27262;-35.248;149.138;2023-08-01T10:11:43;19.20;62.60
41533;DHT22;27262;-35.248;149.138;2023-08-01T10:14:14;19.20;61.90
41533;DHT22;27262;-35.248;149.138;2023-08-01T10:16:46;19.20;61.90
41533;DHT22;27262;-35.248;149.138;2023-08-01T10:19:18;19.20;61.90
41533;DHT22;27262;-35.248;149.138;2023-08-01T10:21:50;19.20;62.00
41533;DHT22;27262;-35.248;149.138;2023-08-01T10:24:24;19.20;61.90
41533;DHT22;27262;-35.248;149.138;2023-08-01T10:26:56;19.20;62.00
41533;DHT22;27262;-35.248;149.138;2023-08-01T10:29:36;19.20;61.90
41533;DHT22;27262;-35.248;149.138;2023-08-01T10:32:10;19.20;61.90
41533;DHT22;27262;-35.248;149.138;2023-08-01T10:34:51;19.20;61.90
41533;DHT22;27262;-35.248;149.138;2023-08-01T10:37:21;19.20;61.80
41533;DHT22;27262;-35.248;149.138;2023-08-01T10:39:59;19.20;62.10
41533;DHT22;27262;-35.248;149.138;2023-08-01T10:42:41;19.10;61.80
41533;DHT22;27262;-35.248;149.138;2023-08-01T10:45:24;19.20;62.00
41533;DHT22;27262;-35.248;149.138;2023-08-01T10:48:10;19.10;61.80
41533;DHT22;27262;-35.248;149.138;2023-08-01T10:50:41;19.10;62.10
41533;DHT22;27262;-35.248;149.138;2023-08-01T10:53:11;19.10;62.00
41533;DHT22;27262;-35.248;149.138;2023-08-01T10:55:45;19.10;61.90
41533;DHT22;27262;-35.248;149.138;2023-08-01T10:58:16;19.10;61.90
41533;DHT22;27262;-35.248;149.138;2023-08-01T11:00:56;19.10;61.90
41533;DHT22;27262;-35.248;149.138;2023-08-01T11:03:39;19.10;62.00
41533;DHT22;27262;-35.248;149.138;2023-08-01T11:06:11;19.10;61.90
41533;DHT22;27262;-35.248;149.138;2023-08-01T11:08:42;19.10;62.10
41533;DHT22;27262;-35.248;149.138;2023-08-01T11:11:31;19.10;62.10
41533;DHT22;27262;-35.248;149.138;2023-08-01T11:14:02;19.10;62.10
41533;DHT22;27262;-35.248;149.138;2023-08-01T11:16:33;19.10;62.20
41533;DHT22;27262;-35.248;149.138;2023-08-01T11:19:03;19.10;62.20
41533;DHT22;27262;-35.248;149.138;2023-08-01T11:21:33;19.10;62.20
41533;DHT22;27262;-35.248;149.138;2023-08-01T11:24:08;19.00;62.10
41533;DHT22;27262;-35.248;149.138;2023-08-01T11:26:46;19.00;62.10
41533;DHT22;27262;-35.248;149.138;2023-08-01T11:29:18;19.00;62.10
41533;DHT22;27262;-35.248;149.138;2023-08-01T11:31:59;19.00;62.10
41533;DHT22;27262;-35.248;149.138;2023-08-01T11:34:40;19.00;62.10
41533;DHT22;27262;-35.248;149.138;2023-08-01T11:37:19;19.00;62.10
41533;DHT22;27262;-35.248;149.138;2023-08-01T11:39:50;19.00;62.30
41533;DHT22;27262;-35.248;149.138;2023-08-01T11:42:20;19.00;62.40
41533;DHT22;27262;-35.248;149.138;2023-08-01T11:44:51;19.00;62.40
41533;DHT22;27262;-35.248;149.138;2023-08-01T11:47:21;19.10;62.50
41533;DHT22;27262;-35.248;149.138;2023-08-01T11:49:51;19.00;62.40
41533;DHT22;27262;-35.248;149.138;2023-08-01T11:52:26;19.00;62.30
41533;DHT22;27262;-35.248;149.138;2023-08-01T11:54:57;19.00;62.10
41533;DHT22;27262;-35.248;149.138;2023-08-01T11:57:27;19.00;62.10
41533;DHT22;27262;-35.248;149.138;2023-08-01T11:59:57;19.00;62.10
41533;DHT22;27262;-35.248;149.138;2023-08-01T12:02:28;19.00;62.10
41533;DHT22;27262;-35.248;149.138;2023-08-01T12:05:02;18.90;62.00
41533;DHT22;27262;-35.248;149.138;2023-08-01T12:07:32;19.00;62.10
41533;DHT22;27262;-35.248;149.138;2023-08-01T12:10:02;18.90;62.00
41533;DHT22;27262;-35.248;149.138;2023-08-01T12:12:44;18.90;62.00
41533;DHT22;27262;-35.248;149.138;2023-08-01T12:15:15;18.90;61.90
41533;DHT22;27262;-35.248;149.138;2023-08-01T12:17:45;18.90;62.00
41533;DHT22;27262;-35.248;149.138;2023-08-01T12:20:16;18.90;62.00
41533;DHT22;27262;-35.248;149.138;2023-08-01T12:22:46;18.80;61.90
41533;DHT22;27262;-35.248;149.138;2023-08-01T12:25:16;18.80;61.90
41533;DHT22;27262;-35.248;149.138;2023-08-01T12:27:47;18.80;61.90
41533;DHT22;27262;-35.248;149.138;2023-08-01T12:30:17;18.80;61.90
41533;DHT22;27262;-35.248;149.138;2023-08-01T12:32:47;18.80;61.90
41533;DHT22;27262;-35.248;149.138;2023-08-01T12:35:18;18.80;61.90
41533;DHT22;27262;-35.248;149.138;2023-08-01T12:37:48;18.70;61.90
41533;DHT22;27262;-35.248;149.138;2023-08-01T12:40:19;18.70;61.90
41533;DHT22;27262;-35.248;149.138;2023-08-01T12:42:49;18.70;61.90
41533;DHT22;27262;-35.248;149.138;2023-08-01T12:45:19;18.70;61.90
41533;DHT22;27262;-35.248;149.138;2023-08-01T12:47:50;18.70;61.90
41533;DHT22;27262;-35.248;149.138;2023-08-01T12:50:20;18.70;61.90
41533;DHT22;27262;-35.248;149.138;2023-08-01T12:52:50;18.60;61.90
41533;DHT22;27262;-35.248;149.138;2023-08-01T12:55:20;18.60;61.90
41533;DHT22;27262;-35.248;149.138;2023-08-01T12:57:51;18.60;61.90
41533;DHT22;27262;-35.248;149.138;2023-08-01T13:00:21;18.60;61.80
41533;DHT22;27262;-35.248;149.138;2023-08-01T13:02:51;18.60;61.90
41533;DHT22;27262;-35.248;149.138;2023-08-01T13:05:22;18.60;61.80
41533;DHT22;27262;-35.248;149.138;2023-08-01T13:07:52;18.60;61.80
41533;DHT22;27262;-35.248;149.138;2023-08-01T13:10:23;18.50;61.80
41533;DHT22;27262;-35.248;149.138;2023-08-01T13:12:53;18.50;61.80
41533;DHT22;27262;-35.248;149.138;2023-08-01T13:15:23;18.50;61.80
41533;DHT22;27262;-35.248;149.138;2023-08-01T13:17:54;18.50;61.80
41533;DHT22;27262;-35.248;149.138;2023-08-01T13:20:24;18.50;61.80
41533;DHT22;27262;-35.248;149.138;2023-08-01T13:22:58;18.50;61.90
41533;DHT22;27262;-35.248;149.138;2023-08-01T13:25:28;18.40;61.90
41533;DHT22;27262;-35.248;149.138;2023-08-01T13:27:58;18.40;61.90
41533;DHT22;27262;-35.248;149.138;2023-08-01T13:30:28;18.40;62.10
41533;DHT22;27262;-35.248;149.138;2023-08-01T13:32:59;18.40;62.10
41533;DHT22;27262;-35.248;149.138;2023-08-01T13:35:30;18.40;62.10
41533;DHT22;27262;-35.248;149.138;2023-08-01T13:38:00;18.30;62.10
41533;DHT22;27262;-35.248;149.138;2023-08-01T13:40:30;18.30;62.10
41533;DHT22;27262;-35.248;149.138;2023-08-01T13:43:01;18.30;62.10
41533;DHT22;27262;-35.248;149.138;2023-08-01T13:45:31;18.20;61.90
41533;DHT22;27262;-35.248;149.138;2023-08-01T13:48:02;18.20;61.90
41533;DHT22;27262;-35.248;149.138;2023-08-01T13:50:32;18.20;61.90
41533;DHT22;27262;-35.248;149.138;2023-08-01T13:53:02;18.20;62.20
41533;DHT22;27262;-35.248;149.138;2023-08-01T13:55:32;18.20;61.90
41533;DHT22;27262;-35.248;149.138;2023-08-01T13:58:03;18.10;61.70
41533;DHT22;27262;-35.248;149.138;2023-08-01T14:00:34;18.10;61.60
41533;DHT22;27262;-35.248;149.138;2023-08-01T14:03:04;18.10;61.70
41533;DHT22;27262;-35.248;149.138;2023-08-01T14:05:35;18.10;61.50
41533;DHT22;27262;-35.248;149.138;2023-08-01T14:08:05;18.00;61.40
41533;DHT22;27262;-35.248;149.138;2023-08-01T14:10:35;18.00;61.40
41533;DHT22;27262;-35.248;149.138;2023-08-01T14:13:05;18.00;61.40
41533;DHT22;27262;-35.248;149.138;2023-08-01T14:15:36;18.00;61.40
41533;DHT22;27262;-35.248;149.138;2023-08-01T14:18:06;18.00;61.40
41533;DHT22;27262;-35.248;149.138;2023-08-01T14:20:36;18.00;61.40
41533;DHT22;27262;-35.248;149.138;2023-08-01T14:23:07;18.00;61.30
41533;DHT22;27262;-35.248;149.138;2023-08-01T14:25:38;17.90;61.30
41533;DHT22;27262;-35.248;149.138;2023-08-01T14:28:08;17.90;61.30
41533;DHT22;27262;-35.248;149.138;2023-08-01T14:30:39;17.90;61.30
41533;DHT22;27262;-35.248;149.138;2023-08-01T14:33:10;17.90;61.30
41533;DHT22;27262;-35.248;149.138;2023-08-01T14:35:41;17.90;61.30
41533;DHT22;27262;-35.248;149.138;2023-08-01T14:38:12;17.80;61.30
41533;DHT22;27262;-35.248;149.138;2023-08-01T14:40:42;17.80;61.30
41533;DHT22;27262;-35.248;149.138;2023-08-01T14:43:33;17.80;61.30
41533;DHT22;27262;-35.248;149.138;2023-08-01T14:46:03;17.80;61.30
41533;DHT22;27262;-35.248;149.138;2023-08-01T14:48:34;17.80;61.30
41533;DHT22;27262;-35.248;149.138;2023-08-01T14:51:07;17.80;61.30
41533;DHT22;27262;-35.248;149.138;2023-08-01T14:53:37;17.80;61.30
41533;DHT22;27262;-35.248;149.138;2023-08-01T14:56:08;17.70;61.20
41533;DHT22;27262;-35.248;149.138;2023-08-01T14:58:38;17.70;61.30
41533;DHT22;27262;-35.248;149.138;2023-08-01T15:01:14;17.70;61.20
41533;DHT22;27262;-35.248;149.138;2023-08-01T15:03:44;17.70;61.10
41533;DHT22;27262;-35.248;149.138;2023-08-01T15:06:15;17.70;61.30
41533;DHT22;27262;-35.248;149.138;2023-08-01T15:08:45;17.60;61.20
41533;DHT22;27262;-35.248;149.138;2023-08-01T15:11:16;17.60;61.30
41533;DHT22;27262;-35.248;149.138;2023-08-01T15:13:46;17.60;61.30